Time;durP1;ratioP1;P1;durP2;ratioP2;P2;SDS_P1;SDS_P2;PMS_P1;PMS_P2;Temp;Humidity;BMP_temperature;BMP_pressure;BME280_temperature;BME280_humidity;BME280_pressure;Samples;Min_cycle;Max_cycle;Signal;HPM_P1;HPM_P2
2022/03/22 00:00:09;;;;;;;;;14.67;14.00;;;;;15.68;48.75;102453.56;4961212;28;45288;-83
2022/03/22 00:02:35;;;;;;;;;19.33;17.33;;;;;15.67;48.85;102452.72;4971586;28;46098;-82
2022/03/22 00:05:00;;;;;;;;;21.67;19.33;;;;;15.72;48.99;102466.00;4960654;28;45873;-82
2022/03/22 00:07:27;;;;;;;;;23.00;20.33;;;;;15.55;49.11;102442.41;4965093;28;47917;-83
2022/03/22 00:09:53;;;;;;;;;18.00;17.67;;;;;15.58;49.32;102450.38;4966905;28;45434;-83
2022/03/22 00:12:18;;;;;;;;;19.00;18.33;;;;;15.68;48.76;102467.88;4974399;28;45635;-82
2022/03/22 00:14:44;;;;;;;;;19.00;19.00;;;;;15.41;48.61;102418.75;4972901;28;48908;-82
2022/03/22 00:17:10;;;;;;;;;23.33;20.33;;;;;15.50;48.76;102436.31;4967727;28;45460;-83
2022/03/22 00:19:35;;;;;;;;;19.67;19.67;;;;;15.70;48.75;102471.44;4950423;28;45508;-82
2022/03/22 00:22:02;;;;;;;;;22.00;18.67;;;;;15.55;48.46;102451.34;4974207;28;45291;-83
2022/03/22 00:24:28;;;;;;;;;18.67;18.00;;;;;15.61;48.29;102455.63;4944957;28;45830;-83
2022/03/22 00:26:54;;;;;;;;;22.00;18.33;;;;;15.57;48.05;102444.13;4964194;28;45753;-83
2022/03/22 00:29:19;;;;;;;;;20.67;18.33;;;;;15.61;48.00;102451.09;4961849;28;45458;-83
2022/03/22 00:31:44;;;;;;;;;17.67;17.67;;;;;15.72;48.26;102469.56;4957087;28;45299;-83
2022/03/22 00:34:13;;;;;;;;;20.00;17.67;;;;;15.73;48.04;102468.66;4967559;28;45648;-82
2022/03/22 00:36:41;;;;;;;;;16.33;15.33;;;;;15.61;47.94;102456.47;4957223;28;45604;-82
2022/03/22 00:39:06;;;;;;;;;17.00;15.67;;;;;15.73;47.96;102473.13;4971429;28;45526;-82
2022/03/22 00:41:32;;;;;;;;;20.67;17.33;;;;;15.71;48.13;102478.59;4960190;28;45429;-82
2022/03/22 00:43:57;;;;;;;;;18.00;15.67;;;;;15.72;48.00;102477.63;4966266;28;46148;-82
2022/03/22 00:46:23;;;;;;;;;16.67;15.00;;;;;15.73;47.98;102481.19;4968789;28;45410;-83
2022/03/22 00:48:48;;;;;;;;;14.00;14.00;;;;;15.64;47.74;102463.59;4957902;28;46337;-82
2022/03/22 00:51:15;;;;;;;;;16.67;15.67;;;;;15.73;48.17;102475.81;4965449;28;45485;-82
2022/03/22 00:53:41;;;;;;;;;16.00;13.67;;;;;15.54;48.05;102449.59;4965157;28;46128;-82
2022/03/22 00:56:07;;;;;;;;;18.33;14.67;;;;;15.36;47.89;102418.06;4975065;28;45436;-82
2022/03/22 00:58:32;;;;;;;;;20.00;16.33;;;;;15.54;47.67;102471.09;4959062;28;45482;-82
2022/03/22 01:00:58;;;;;;;;;20.00;17.67;;;;;15.50;47.76;102472.16;4962191;28;45619;-82
2022/03/22 01:03:23;;;;;;;;;16.67;16.67;;;;;15.52;47.87;102481.03;4973374;28;45501;-82
2022/03/22 01:05:52;;;;;;;;;14.67;13.00;;;;;15.50;47.92;102485.59;4952122;28;45644;-82
2022/03/22 01:08:17;;;;;;;;;19.67;18.67;;;;;15.19;48.13;102443.72;4961658;28;45435;-82
2022/03/22 01:10:52;;;;;;;;;20.00;16.33;;;;;15.45;47.63;102484.84;4969815;28;45402;-83
2022/03/22 01:13:27;;;;;;;;;23.67;18.00;;;;;15.44;47.93;102483.13;4958613;28;45429;-82
2022/03/22 01:15:53;;;;;;;;;20.67;18.33;;;;;15.25;48.07;102447.97;4964970;28;45412;-82
2022/03/22 01:18:19;;;;;;;;;17.33;17.33;;;;;15.45;47.93;102475.94;4969396;28;45418;-82
2022/03/22 01:20:47;;;;;;;;;17.67;17.67;;;;;15.43;47.93;102481.38;4964649;28;45539;-82
2022/03/22 01:23:12;;;;;;;;;18.33;17.00;;;;;15.43;48.11;102476.00;4970841;28;46250;-83
2022/03/22 01:25:41;;;;;;;;;18.33;17.67;;;;;15.35;47.63;102457.44;4970991;28;45736;-82
2022/03/22 01:28:08;;;;;;;;;20.00;18.67;;;;;15.36;47.94;102469.97;4967325;28;45574;-82
2022/03/22 01:30:34;;;;;;;;;17.00;16.00;;;;;15.18;47.80;102441.94;4975463;28;45437;-83
2022/03/22 01:33:00;;;;;;;;;17.00;15.67;;;;;15.40;47.43;102478.78;4954629;28;47583;-82
2022/03/22 01:35:26;;;;;;;;;15.00;15.00;;;;;15.38;47.40;102473.47;4975210;28;45397;-82
2022/03/22 01:37:54;;;;;;;;;17.33;15.67;;;;;15.36;47.52;102469.09;4974284;28;45494;-82
2022/03/22 01:40:22;;;;;;;;;18.67;16.00;;;;;15.10;47.47;102433.31;4959447;28;45406;-82
2022/03/22 01:42:48;;;;;;;;;18.67;15.33;;;;;15.12;47.64;102428.72;4962883;28;45291;-83
2022/03/22 01:45:15;;;;;;;;;18.67;16.67;;;;;15.39;47.53;102480.59;4961094;28;45694;-82
2022/03/22 01:47:42;;;;;;;;;19.33;16.67;;;;;15.16;47.08;102437.56;4972653;28;45422;-82
2022/03/22 01:50:11;;;;;;;;;17.00;10.33;;;;;15.38;47.27;102468.09;4964846;28;45457;-82
2022/03/22 01:52:39;;;;;;;;;15.67;15.00;;;;;15.20;46.91;102436.53;4970339;28;45389;-83
2022/03/22 01:55:06;;;;;;;;;19.67;17.67;;;;;15.31;46.68;102453.16;4948344;28;45520;-83
2022/03/22 01:57:33;;;;;;;;;17.67;15.67;;;;;15.16;46.43;102427.69;4962751;28;45517;-82
2022/03/22 02:00:00;;;;;;;;;21.33;16.33;;;;;15.21;46.29;102438.28;4985185;27;45554;-83
2022/03/22 02:08:00;;;;;;;;;14.33;14.33;;;;;15.12;45.46;102422.47;4960885;28;45390;-83
2022/03/22 02:10:26;;;;;;;;;17.00;17.00;;;;;15.24;45.36;102438.19;4964985;28;45482;-82
2022/03/22 02:12:51;;;;;;;;;18.00;17.00;;;;;15.19;45.26;102441.03;4970037;28;45484;-82
2022/03/22 02:15:17;;;;;;;;;14.00;14.00;;;;;15.15;45.13;102434.00;4958823;28;45506;-83
2022/03/22 02:17:45;;;;;;;;;16.33;13.33;;;;;15.24;44.98;102450.72;4940621;28;45798;-82
2022/03/22 02:20:11;;;;;;;;;15.00;13.00;;;;;15.14;44.77;102434.91;4974258;28;45524;-83
2022/03/22 02:22:49;;;;;;;;;13.67;13.67;;;;;15.27;44.96;102453.31;4968027;28;46383;-83
2022/03/22 02:25:15;;;;;;;;;13.00;12.67;;;;;14.88;44.69;102394.69;4968426;28;45378;-82
2022/03/22 02:27:44;;;;;;;;;14.67;14.00;;;;;14.96;44.31;102408.72;4974273;28;45527;-82
2022/03/22 02:30:12;;;;;;;;;19.00;18.33;;;;;15.09;44.44;102434.22;4971520;28;45249;-82
2022/03/22 02:32:38;;;;;;;;;15.67;12.67;;;;;15.23;44.30;102465.09;4979881;27;45468;-83
2022/03/22 02:35:04;;;;;;;;;17.67;11.67;;;;;15.17;43.84;102467.06;4963285;28;45434;-83
2022/03/22 02:37:30;;;;;;;;;14.67;12.00;;;;;15.17;43.72;102466.16;4965548;28;45358;-82
2022/03/22 02:39:55;;;;;;;;;15.00;14.00;;;;;15.10;43.87;102454.78;4973811;28;45426;-83
2022/03/22 02:42:21;;;;;;;;;17.00;14.00;;;;;15.16;43.53;102461.75;4980744;27;46045;-83
2022/03/22 02:44:46;;;;;;;;;16.67;13.67;;;;;15.14;43.54;102464.47;4946766;28;45802;-82
2022/03/22 02:47:11;;;;;;;;;14.67;14.33;;;;;14.96;43.55;102433.78;4964875;28;45553;-83
2022/03/22 02:49:37;;;;;;;;;14.33;12.33;;;;;15.13;43.34;102470.78;4965699;28;45785;-83
2022/03/22 02:52:02;;;;;;;;;16.33;14.33;;;;;14.89;43.21;102428.66;4962053;28;46519;-83
2022/03/22 02:54:28;;;;;;;;;17.00;14.33;;;;;14.98;43.07;102437.31;4967430;28;45775;-83
2022/03/22 02:56:53;;;;;;;;;13.00;13.00;;;;;15.15;43.75;102463.56;4960219;28;45599;-83
2022/03/22 02:59:18;;;;;;;;;17.00;17.00;;;;;14.87;43.63;102415.31;4973935;28;50612;-82
2022/03/22 03:01:43;;;;;;;;;15.33;15.33;;;;;15.08;43.98;102464.69;4977503;28;45679;-82
2022/03/22 03:04:09;;;;;;;;;8.67;8.67;;;;;14.76;43.72;102409.44;4988903;28;45322;-83
2022/03/22 03:06:35;;;;;;;;;12.67;12.00;;;;;14.95;43.46;102444.56;4961020;27;45589;-82
2022/03/22 03:09:01;;;;;;;;;15.00;14.00;;;;;14.94;44.46;102445.50;4960848;28;45291;-83
2022/03/22 03:11:27;;;;;;;;;14.33;11.33;;;;;14.94;44.17;102456.25;4962039;28;45991;-82
2022/03/22 03:16:39;;;;;;;;;17.00;17.00;;;;;14.85;44.88;102467.31;4969074;28;45369;-83
2022/03/22 03:19:05;;;;;;;;;16.67;16.00;;;;;14.72;45.25;102456.09;4965171;28;45450;-82
2022/03/22 03:21:30;;;;;;;;;19.33;17.67;;;;;14.64;45.72;102455.47;4961297;28;46357;-82
2022/03/22 03:23:55;;;;;;;;;19.67;16.00;;;;;14.74;46.03;102483.75;4967942;28;45571;-83
2022/03/22 03:26:21;;;;;;;;;20.33;16.33;;;;;14.70;46.02;102483.00;4966588;28;45407;-83
2022/03/22 03:28:46;;;;;;;;;18.67;16.67;;;;;14.59;45.97;102482.47;4986806;28;45590;-83
2022/03/22 03:31:11;;;;;;;;;21.33;17.67;;;;;14.52;46.30;102472.84;4965734;28;45910;-83
2022/03/22 03:33:37;;;;;;;;;18.00;18.00;;;;;14.52;46.33;102488.94;4966082;28;46477;-83
2022/03/22 03:36:03;;;;;;;;;22.33;19.33;;;;;14.33;46.57;102464.50;4957077;28;46470;-83
2022/03/22 03:38:29;;;;;;;;;23.33;19.00;;;;;14.14;46.12;102435.56;4961573;28;45573;-83
2022/03/22 03:43:37;;;;;;;;;23.00;16.67;;;;;14.20;46.20;102447.03;4960625;28;45739;-82
2022/03/22 03:48:47;;;;;;;;;23.00;15.00;;;;;14.20;46.14;102447.03;4966186;28;45413;-82
2022/03/22 03:51:12;;;;;;;;;23.00;18.33;;;;;14.36;45.71;102472.44;4962113;28;45577;-82
2022/03/22 03:53:37;;;;;;;;;18.33;15.33;;;;;14.20;45.74;102458.63;4966610;28;45678;-83
2022/03/22 03:56:03;;;;;;;;;20.67;16.67;;;;;14.35;45.78;102484.97;4969339;28;56927;-83
2022/03/22 03:58:30;;;;;;;;;14.33;11.67;;;;;14.34;45.71;102490.38;4962416;28;45418;-83
2022/03/22 04:00:55;;;;;;;;;20.00;16.00;;;;;14.23;45.96;102477.28;4971450;27;45423;-83
2022/03/22 04:03:20;;;;;;;;;20.67;19.33;;;;;14.24;45.77;102491.63;4979969;28;57299;-83
2022/03/22 04:05:46;;;;;;;;;16.00;14.67;;;;;14.25;45.84;102496.91;4973149;28;45486;-82
2022/03/22 04:08:11;;;;;;;;;16.67;16.00;;;;;14.24;45.63;102503.22;4960669;28;45268;-83
2022/03/22 04:10:36;;;;;;;;;18.67;17.33;;;;;14.13;45.50;102483.88;4964128;28;45335;-83
2022/03/22 04:13:02;;;;;;;;;20.67;18.33;;;;;14.02;45.38;102472.59;4959062;28;45414;-82
2022/03/22 04:15:29;;;;;;;;;21.00;16.33;;;;;13.94;45.56;102463.00;4982944;28;45630;-83
2022/03/22 04:17:56;;;;;;;;;21.67;16.67;;;;;14.19;45.74;102507.84;4974629;28;45310;-83
2022/03/22 04:20:22;;;;;;;;;18.33;15.00;;;;;14.05;45.26;102484.13;4963690;28;45400;-82
2022/03/22 04:22:47;;;;;;;;;19.67;18.00;;;;;13.92;45.11;102466.66;4967341;28;45339;-83
2022/03/22 04:25:13;;;;;;;;;16.33;14.67;;;;;14.18;45.25;102514.13;4966292;28;45312;-82
2022/03/22 04:33:06;;;;;;;;;17.00;15.67;;;;;14.15;45.09;102512.41;4972570;28;45433;-83
2022/03/22 04:35:32;;;;;;;;;16.67;16.67;;;;;14.03;45.00;102488.66;4976930;28;45493;-83
2022/03/22 04:37:58;;;;;;;;;15.67;15.67;;;;;13.93;45.10;102473.78;4974342;28;45473;-83
2022/03/22 04:40:25;;;;;;;;;15.33;15.00;;;;;14.13;45.32;102513.38;4968144;28;46042;-84
2022/03/22 04:42:51;;;;;;;;;15.67;14.33;;;;;14.02;44.91;102496.72;4966873;28;45390;-83
2022/03/22 04:45:16;;;;;;;;;16.67;15.67;;;;;14.08;45.08;102513.50;4974683;28;45423;-83
2022/03/22 04:47:45;;;;;;;;;19.67;16.00;;;;;13.96;44.75;102489.75;4965511;28;45328;-83
2022/03/22 04:50:13;;;;;;;;;16.00;16.00;;;;;13.89;45.02;102482.81;4959204;28;45725;-83
2022/03/22 04:58:07;;;;;;;;;20.33;15.67;;;;;13.88;45.27;102510.53;4968927;28;45485;-83
2022/03/22 05:00:34;;;;;;;;;17.33;17.33;;;;;13.94;45.27;102524.66;4966881;28;45408;-83
2022/03/22 05:03:00;;;;;;;;;18.33;18.33;;;;;13.92;44.96;102529.16;4974086;28;45441;-82
2022/03/22 05:08:09;;;;;;;;;23.67;18.33;;;;;13.88;44.89;102535.56;4970898;28;45421;-82
2022/03/22 05:10:35;;;;;;;;;16.67;16.67;;;;;13.45;45.12;102468.91;4966804;28;45489;-83
2022/03/22 05:13:01;;;;;;;;;15.00;15.00;;;;;13.68;45.30;102519.16;4971596;28;45475;-83
2022/03/22 05:15:27;;;;;;;;;17.67;15.67;;;;;13.77;45.03;102536.78;4957341;28;45296;-82
2022/03/22 05:17:52;;;;;;;;;15.00;12.33;;;;;13.68;44.83;102525.41;4972077;28;45294;-83
2022/03/22 05:20:17;;;;;;;;;15.67;13.00;;;;;13.79;45.06;102548.31;4968826;28;46115;-83
2022/03/22 05:22:43;;;;;;;;;17.00;15.00;;;;;13.60;44.83;102516.72;4975529;28;45386;-82
2022/03/22 05:25:09;;;;;;;;;16.33;15.00;;;;;13.73;45.12;102560.97;4967262;28;45433;-83
2022/03/22 05:27:36;;;;;;;;;22.33;17.33;;;;;13.72;45.20;102555.69;4979736;28;45565;-83
2022/03/22 05:30:02;;;;;;;;;22.33;18.33;;;;;13.64;44.85;102541.59;4974002;28;45431;-83
2022/03/22 05:32:27;;;;;;;;;13.67;13.67;;;;;13.70;45.02;102561.06;4976745;28;45384;-83
2022/03/22 05:34:53;;;;;;;;;23.33;18.33;;;;;13.70;44.83;102553.03;4971871;28;45467;-82
2022/03/22 05:37:21;;;;;;;;;23.33;20.00;;;;;13.33;44.69;102496.03;4962516;28;45460;-83
2022/03/22 05:39:46;;;;;;;;;15.33;13.33;;;;;13.66;44.63;102553.16;4949822;28;46074;-82
2022/03/22 05:42:13;;;;;;;;;15.00;14.33;;;;;13.55;44.34;102539.19;4966679;28;45433;-83
2022/03/22 05:44:39;;;;;;;;;14.67;10.33;;;;;13.49;44.78;102525.03;4971883;28;45248;-82
2022/03/22 05:47:06;;;;;;;;;14.00;13.00;;;;;13.74;44.74;102567.22;4967607;28;45218;-82
2022/03/22 05:49:33;;;;;;;;;16.00;15.67;;;;;13.73;44.61;102568.16;4964703;28;45416;-83
2022/03/22 05:51:58;;;;;;;;;14.67;14.67;;;;;13.59;44.42;102551.56;4973451;28;45807;-82
2022/03/22 05:54:24;;;;;;;;;16.00;16.00;;;;;13.71;44.37;102576.22;4981425;28;45515;-82
2022/03/22 05:56:50;;;;;;;;;21.00;19.67;;;;;13.71;44.18;102578.03;4973510;28;45513;-83
2022/03/22 05:59:15;;;;;;;;;16.67;16.67;;;;;13.71;44.45;102576.22;4965146;28;45573;-83
2022/03/22 06:01:44;;;;;;;;;19.33;18.00;;;;;13.52;44.36;102550.84;4968826;28;45454;-83
2022/03/22 06:04:09;;;;;;;;;19.33;17.00;;;;;13.67;44.28;102577.25;4978605;28;45490;-83
2022/03/22 06:06:35;;;;;;;;;18.00;17.00;;;;;13.52;44.26;102554.41;4972958;28;45486;-83
2022/03/22 06:09:01;;;;;;;;;21.67;17.33;;;;;13.55;44.09;102563.28;4970628;28;46489;-83
2022/03/22 06:11:26;;;;;;;;;23.67;20.33;;;;;13.54;44.03;102566.91;4974051;28;45410;-83
2022/03/22 06:13:51;;;;;;;;;20.00;17.33;;;;;13.68;44.29;102589.72;4974410;28;45649;-83
2022/03/22 06:16:18;;;;;;;;;20.00;18.33;;;;;13.44;44.28;102548.41;4975803;28;45464;-83
2022/03/22 06:18:46;;;;;;;;;20.67;18.00;;;;;13.70;44.22;102595.03;4956107;28;45272;-83
2022/03/22 06:21:11;;;;;;;;;16.33;14.00;;;;;13.71;44.34;102600.34;4962968;28;47997;-83
2022/03/22 06:23:36;;;;;;;;;23.00;17.67;;;;;13.71;44.19;102600.34;4970441;27;45237;-82
2022/03/22 06:26:02;;;;;;;;;21.67;21.67;;;;;13.72;44.01;102607.47;4971002;27;45192;-81
2022/03/22 06:28:28;;;;;;;;;25.00;21.33;;;;;13.67;43.92;102603.13;4965404;28;45943;-80
2022/03/22 06:30:53;;;;;;;;;21.67;20.67;;;;;13.62;43.87;102595.22;4967618;28;45284;-85
2022/03/22 06:33:22;;;;;;;;;18.00;18.00;;;;;13.73;43.91;102611.03;4964102;28;45479;-82
2022/03/22 06:35:48;;;;;;;;;22.33;19.67;;;;;13.73;44.14;102605.66;4965736;28;45613;-79
2022/03/22 06:38:13;;;;;;;;;22.67;20.00;;;;;13.76;43.77;102610.94;4958850;28;45570;-81
2022/03/22 06:40:39;;;;;;;;;23.00;18.67;;;;;13.73;43.79;102600.31;4955833;28;45402;-84
2022/03/22 06:43:14;;;;;;;;;21.33;20.00;;;;;13.80;43.87;102619.78;4986904;28;45466;-86
2022/03/22 06:45:40;;;;;;;;;18.33;18.33;;;;;13.38;44.24;102545.00;4971771;28;45616;-90
2022/03/22 06:48:08;;;;;;;;;20.67;20.00;;;;;13.56;44.20;102576.66;4965963;28;45493;-87
2022/03/22 06:50:35;;;;;;;;;21.33;18.67;;;;;13.75;43.60;102609.19;4990125;28;45577;-90
2022/03/22 06:53:01;;;;;;;;;20.67;17.67;;;;;13.84;43.63;102630.38;5017321;28;45324;-91
2022/03/22 06:55:27;;;;;;;;;38.25;34.00;;;;;13.52;44.11;102580.31;4958183;28;45618;-89
2022/03/22 06:57:52;;;;;;;;;24.00;18.67;;;;;13.50;43.91;102569.63;4972198;28;47215;-89
2022/03/22 07:00:19;;;;;;;;;22.33;20.33;;;;;13.86;43.51;102623.19;4971379;28;45348;-90
2022/03/22 07:02:46;;;;;;;;;23.00;20.00;;;;;13.86;43.63;102627.63;4978981;28;45557;-90
2022/03/22 07:05:12;;;;;;;;;23.33;19.33;;;;;13.85;43.51;102625.88;4985859;28;45501;-90
2022/03/22 07:07:38;;;;;;;;;21.67;20.00;;;;;13.51;43.36;102574.09;4972321;28;48022;-90
2022/03/22 07:10:05;;;;;;;;;25.33;22.33;;;;;13.85;43.46;102625.88;4997212;28;45459;-90
2022/03/22 07:12:30;;;;;;;;;24.67;22.00;;;;;13.64;43.18;102590.72;4987131;28;45597;-89
2022/03/22 07:14:56;;;;;;;;;27.00;19.33;;;;;13.67;43.25;102585.28;4975631;28;45742;-89
2022/03/22 07:17:21;;;;;;;;;28.67;25.67;;;;;13.84;43.28;102626.84;4965554;28;46485;-89
2022/03/22 07:19:47;;;;;;;;;25.67;22.67;;;;;13.64;43.39;102569.28;4973508;28;46147;-90
2022/03/22 07:22:13;;;;;;;;;22.67;20.33;;;;;13.70;42.79;102593.22;4974149;28;45595;-90
2022/03/22 07:24:38;;;;;;;;;21.00;18.00;;;;;13.42;42.54;102536.84;4969660;28;45476;-90
2022/03/22 07:27:04;;;;;;;;;24.00;24.00;;;;;13.67;43.09;102571.88;4961579;28;47257;-90
2022/03/22 07:29:30;;;;;;;;;25.67;21.67;;;;;13.49;42.87;102533.06;4977801;28;45782;-89
2022/03/22 07:31:58;;;;;;;;;30.33;25.00;;;;;14.00;42.78;102609.41;4970823;28;45495;-89
2022/03/22 07:34:24;;;;;;;;;22.67;22.67;;;;;14.20;42.46;102637.44;4984021;28;45315;-89
2022/03/22 07:36:52;;;;;;;;;21.00;18.00;;;;;14.22;42.79;102639.16;4978553;28;46122;-90
2022/03/22 07:39:19;;;;;;;;;26.33;24.33;;;;;14.27;42.29;102642.56;4982613;28;46022;-92
2022/03/22 07:41:46;;;;;;;;;23.33;21.67;;;;;13.85;42.80;102569.59;4983921;28;45504;-88
2022/03/22 07:44:12;;;;;;;;;29.33;22.67;;;;;14.21;42.96;102626.69;4974303;28;45490;-90
2022/03/22 07:46:39;;;;;;;;;39.00;36.00;;;;;14.41;42.59;102642.19;5015955;28;47063;-93
2022/03/22 07:54:32;;;;;;;;;28.67;26.67;;;;;14.17;42.43;102583.91;4964247;28;45426;-93
2022/03/22 07:56:57;;;;;;;;;21.33;19.00;;;;;14.63;41.71;102644.25;4954151;28;48240;-89
2022/03/22 07:59:27;;;;;;;;;40.50;36.00;;;;;14.73;41.92;102635.00;4971155;28;45233;-86
2022/03/22 08:01:52;;;;;;;;;23.33;19.00;;;;;14.59;41.44;102600.53;4970855;28;45506;-85
2022/03/22 08:04:18;;;;;;;;;19.67;17.33;;;;;14.92;41.53;102646.06;5005404;28;45433;-86
2022/03/22 08:06:43;;;;;;;;;39.75;34.50;;;;;14.74;41.17;102593.81;4973404;28;46040;-88
2022/03/22 08:09:09;;;;;;;;;53.50;41.25;;;;;14.54;40.74;102546.16;4974253;28;45437;-90
2022/03/22 08:11:34;;;;;;;;;31.67;27.00;;;;;14.68;40.49;102573.41;4961731;28;45657;-91
2022/03/22 08:14:02;;;;;;;;;34.50;32.75;;;;;14.62;41.21;102549.44;4938291;28;45489;-89
2022/03/22 08:16:27;;;;;;;;;40.75;33.75;;;;;15.30;40.64;102649.31;4950485;28;47549;-87
2022/03/22 08:18:53;;;;;;;;;21.00;21.00;;;;;15.05;40.21;102604.44;4944294;28;45931;-91
2022/03/22 08:21:19;;;;;;;;;29.67;22.00;;;;;15.46;39.68;102652.38;4962827;28;45375;-87
2022/03/22 08:23:44;;;;;;;;;32.67;29.33;;;;;15.20;40.33;102590.50;4950391;28;45226;-88
2022/03/22 08:26:10;;;;;;;;;24.33;23.33;;;;;15.66;39.38;102655.22;5009695;28;45362;-88
2022/03/22 08:28:36;;;;;;;;;27.67;26.00;;;;;15.93;38.93;102606.84;4969432;27;45429;-89
2022/03/22 08:31:02;;;;;;;;;27.67;24.00;;;;;16.62;37.85;102642.81;4974208;27;45426;-90
2022/03/22 08:33:27;;;;;;;;;23.67;23.33;;;;;16.92;37.48;102639.84;4978126;28;45480;-87
2022/03/22 08:35:53;;;;;;;;;23.67;23.67;;;;;16.82;37.46;102607.03;4961774;28;46100;-89
2022/03/22 08:38:21;;;;;;;;;27.00;25.33;;;;;17.26;37.05;102644.75;4948135;28;45418;-89
2022/03/22 08:40:51;;;;;;;;;25.67;22.33;;;;;17.43;36.40;102627.88;4992205;28;45596;-89
2022/03/22 08:43:19;;;;;;;;;41.75;34.50;;;;;17.30;36.68;102583.50;4990028;27;45459;-88
2022/03/22 08:45:44;;;;;;;;;19.33;18.00;;;;;17.76;35.75;102639.97;4963281;28;45921;-90
2022/03/22 08:48:11;;;;;;;;;33.67;29.00;;;;;17.87;35.24;102633.22;4965230;28;45375;-88
2022/03/22 08:50:38;;;;;;;;;26.67;25.33;;;;;18.43;35.32;102649.59;4964819;28;45436;-90
2022/03/22 08:53:03;;;;;;;;;45.00;36.75;;;;;18.65;33.97;102634.13;4970612;28;45268;-90
2022/03/22 08:55:29;;;;;;;;;27.00;26.00;;;;;19.06;33.38;102642.09;4968460;28;45312;-90
2022/03/22 08:57:55;;;;;;;;;28.33;23.00;;;;;19.09;32.77;102595.13;4963707;28;45462;-90
2022/03/22 09:00:21;;;;;;;;;20.33;20.33;;;;;19.18;31.84;102584.72;4950266;28;45382;-90
2022/03/22 09:02:49;;;;;;;;;20.00;18.33;;;;;19.39;30.73;102622.44;4963476;28;45385;-89
2022/03/22 09:08:01;;;;;;;;;15.67;14.67;;;;;19.93;27.87;102625.97;4973050;28;45337;-89
2022/03/22 09:10:27;;;;;;;;;19.67;17.00;;;;;20.11;25.74;102634.94;4962659;28;45398;-89
2022/03/22 09:12:53;;;;;;;;;30.33;28.33;;;;;20.15;26.41;102608.56;4964123;28;45540;-90
2022/03/22 09:15:20;;;;;;;;;32.67;28.00;;;;;20.35;26.40;102599.34;4962148;28;45914;-90
2022/03/22 09:17:47;;;;;;;;;19.67;17.33;;;;;20.67;25.77;102630.06;4966418;28;45477;-91
2022/03/22 09:20:13;;;;;;;;;29.33;27.00;;;;;20.79;25.80;102625.81;4985267;27;45598;-89
2022/03/22 09:22:49;;;;;;;;;24.33;23.00;;;;;20.89;25.59;102626.19;4971004;28;45437;-89
2022/03/22 09:25:16;;;;;;;;;17.67;15.67;;;;;20.76;24.89;102583.50;4965361;28;46114;-88
2022/03/22 09:27:43;;;;;;;;;16.67;16.00;;;;;21.14;24.21;102633.75;4968443;28;45383;-89
2022/03/22 09:30:10;;;;;;;;;28.67;24.00;;;;;21.27;23.50;102634.78;4973762;28;45560;-89
2022/03/22 09:32:37;;;;;;;;;19.33;19.33;;;;;21.44;22.69;102644.66;4969383;28;45658;-88
2022/03/22 09:35:07;;;;;;;;;15.33;14.67;;;;;21.46;21.88;102610.19;4960980;28;46413;-87
2022/03/22 09:37:34;;;;;;;;;13.00;12.00;;;;;21.65;21.54;102596.38;4964575;28;45422;-90
2022/03/22 09:39:59;;;;;;;;;15.00;13.00;;;;;22.22;21.40;102636.31;4975497;28;45526;-88
2022/03/22 09:42:27;;;;;;;;;12.67;11.00;;;;;22.54;20.54;102594.38;4966735;28;45620;-91
2022/03/22 09:44:53;;;;;;;;;13.00;11.00;;;;;23.49;20.04;102606.22;4965086;28;45301;-93
2022/03/22 09:47:18;;;;;;;;;16.33;15.33;;;;;24.01;18.91;102569.03;4975630;28;45389;-92
2022/03/22 09:49:44;;;;;;;;;14.00;12.67;;;;;25.17;18.78;102610.50;4961424;28;45431;-91
2022/03/22 09:52:10;;;;;;;;;13.33;11.00;;;;;26.01;18.41;102584.88;4957758;28;45627;-90
2022/03/22 09:54:38;;;;;;;;;13.33;12.67;;;;;27.06;17.32;102557.09;4970588;28;45975;-90
2022/03/22 09:57:05;;;;;;;;;10.33;10.33;;;;;28.22;15.54;102575.34;4982056;28;45495;-91
2022/03/22 09:59:32;;;;;;;;;17.67;12.33;;;;;29.12;15.04;102550.56;4975814;28;45463;-91
2022/03/22 10:02:04;;;;;;;;;9.33;8.33;;;;;30.54;14.70;102611.16;4958880;28;45506;-91
2022/03/22 10:04:43;;;;;;;;;12.33;12.33;;;;;31.53;13.63;102608.44;5059912;28;48229;-91
2022/03/22 10:07:18;;;;;;;;;11.67;11.67;;;;;32.44;13.13;102585.03;5043473;28;45958;-91
2022/03/22 10:09:52;;;;;;;;;10.00;8.67;;;;;33.15;12.59;102578.16;5060380;28;45406;-91
2022/03/22 10:12:29;;;;;;;;;15.67;15.67;;;;;34.17;11.48;102582.22;5060789;28;45524;-89
2022/03/22 10:15:05;;;;;;;;;13.33;10.00;;;;;34.77;10.39;102549.38;4961932;28;47099;-90
2022/03/22 10:17:31;;;;;;;;;12.00;10.67;;;;;35.20;10.22;102561.72;4957163;28;45415;-90
2022/03/22 10:19:56;;;;;;;;;11.00;10.67;;;;;35.65;10.08;102546.06;4939504;28;45263;-91
2022/03/22 10:22:23;;;;;;;;;10.33;10.33;;;;;36.55;9.30;102602.44;4957633;28;45545;-91
2022/03/22 10:24:59;;;;;;;;;13.00;11.00;;;;;36.92;10.10;102556.91;4970417;28;47279;-91
2022/03/22 10:27:36;;;;;;;;;10.67;10.67;;;;;37.41;9.46;102563.56;4958765;28;45244;-90
2022/03/22 10:30:05;;;;;;;;;13.67;10.67;;;;;37.80;9.03;102571.38;4970574;28;45514;-90
2022/03/22 10:32:36;;;;;;;;;13.67;13.67;;;;;38.19;9.25;102603.34;4957443;28;45398;-89
2022/03/22 10:35:26;;;;;;;;;10.33;10.33;;;;;38.46;9.59;102600.72;4954960;28;46983;-90
2022/03/22 10:37:53;;;;;;;;;14.00;13.00;;;;;38.65;8.34;102596.28;4960829;28;45828;-90
2022/03/22 10:40:23;;;;;;;;;18.67;17.33;;;;;38.81;8.62;102572.72;4974494;28;45488;-90
2022/03/22 10:42:53;;;;;;;;;14.00;14.00;;;;;39.20;8.94;102594.28;4976938;28;45579;-92
2022/03/22 10:45:19;;;;;;;;;10.67;10.67;;;;;39.14;8.63;102580.31;4956423;28;45457;-93
2022/03/22 10:47:46;;;;;;;;;10.67;10.33;;;;;39.36;7.99;102598.63;4969900;28;45304;-92
2022/03/22 10:50:12;;;;;;;;;11.67;9.00;;;;;38.44;8.53;102541.50;4958075;28;45325;-92
2022/03/22 10:53:07;;;;;;;;;12.00;11.67;;;;;38.47;8.81;102598.78;4974839;28;45400;-92
2022/03/22 10:55:32;;;;;;;;;13.00;13.00;;;;;37.77;8.35;102516.13;4967248;28;45620;-92
2022/03/22 10:58:00;;;;;;;;;11.33;10.33;;;;;38.01;8.39;102595.53;4975119;28;45340;-91
2022/03/22 11:00:26;;;;;;;;;21.33;20.33;;;;;37.51;8.66;102547.41;4959144;28;45381;-90
2022/03/22 11:02:55;;;;;;;;;17.67;16.00;;;;;37.14;9.35;102529.13;4958859;28;45370;-90
2022/03/22 11:05:23;;;;;;;;;13.00;13.00;;;;;36.81;9.68;102526.88;4974669;28;47991;-90
2022/03/22 11:07:50;;;;;;;;;9.67;9.67;;;;;36.56;8.60;102523.59;4974453;28;45571;-90
2022/03/22 11:10:25;;;;;;;;;11.33;11.33;;;;;36.50;9.60;102574.38;4981537;28;45384;-90
2022/03/22 11:12:51;;;;;;;;;17.33;15.33;;;;;36.30;9.72;102576.91;4972019;28;45455;-90
2022/03/22 11:15:17;;;;;;;;;16.67;13.33;;;;;35.39;9.48;102479.91;4958487;28;45581;-90
2022/03/22 11:17:45;;;;;;;;;10.00;10.00;;;;;35.52;9.85;102540.28;4954584;28;45917;-91
2022/03/22 11:20:13;;;;;;;;;14.67;14.67;;;;;35.44;9.49;102576.41;4955983;28;45519;-90
2022/03/22 11:22:50;;;;;;;;;18.00;18.00;;;;;34.67;10.63;102505.28;4938644;28;45518;-89
2022/03/22 11:25:24;;;;;;;;;11.33;11.33;;;;;35.04;9.58;102568.22;4955942;28;45557;-90
2022/03/22 11:28:03;;;;;;;;;14.00;14.00;;;;;34.70;10.51;102529.00;4954467;28;45445;-90
2022/03/22 11:30:30;;;;;;;;;11.33;10.33;;;;;34.17;9.69;102501.09;4938153;28;45508;-90
2022/03/22 11:36:11;;;;;;;;;11.33;10.33;;;;;33.53;11.04;102498.31;4955402;28;45822;-91
2022/03/22 11:38:51;;;;;;;;;13.00;13.00;;;;;33.12;10.79;102506.66;4955438;28;45399;-90
2022/03/22 11:44:10;;;;;;;;;17.67;16.33;;;;;32.59;11.08;102550.25;4995173;28;45292;-91
2022/03/22 11:46:35;;;;;;;;;11.00;10.67;;;;;31.91;10.43;102505.13;4993391;27;47384;-91
2022/03/22 11:49:18;;;;;;;;;13.00;11.00;;;;;31.67;11.04;102532.56;4993827;28;45461;-90